Port Saint John, Florida
Current Conditions -  °F | °C
As of 7:47 PM on Thursday 27 Nov 2014 (Local Time) from KTIX Reporting Station
Clear Clear  
Wind Chill: 55°   Ceiling: Unl
Heat Index: 55°   Visibility: 7mi
Dew Point: 39°   Wind: 9mph
Humidity: 54%   Direction: 320°NW
Pressure: 30.25"   Gusts: NA
Location:  28.468°N, 80.8172°W
Report Text: KTIX 280047Z 32008KT 7SM SKC 13/04 A3025
Loading
Personal Weather Stations






























Interactive Weather Map New forecast layout! Learn more

10-Day Weather Forecast

Advertisements
Track Severe Weather on mobile